Marshlands, Pennsylvania
Current Conditions -  °F | °C
As of 9:35 PM on Thursday 20 Nov 2014 (Local Time) from KN38 Reporting Station
Clear Clear  
Wind Chill:   Ceiling: Unl
Heat Index: 19°   Visibility: 10mi
Dew Point:   Wind: 18mph
Humidity: 63%   Direction: 260°W
Pressure: 29.92"   Gusts: 29mph
Location:  41.6649°N, 77.5403°W
Report Text: KN38 210235Z AUTO 26016G25KT 10SM CLR M07/M13 A2992 RMK AO2
Loading
Personal Weather Stations






























Interactive Weather Map New forecast layout! Learn more

10-Day Weather Forecast

Advertisements
Track Severe Weather on mobile